LIBP/PSR METAR and TAF weather

Enter ICAO airport designator
Station Type Date Time Source
LIBP METAR 2021/01/27 13:20 UTC NOAA

LIBP 271320Z AUTO VRB02KT 9999 NCD 10/M09 Q1016


Station Type Date Time Source
LIBP Decoded METAR 2021/01/27 13:20 UTC NOAA

Pescara, Italy (LIBP) 42-26N 014-12E 11M
Jan 27, 2021 - 08:20 AM EST / 2021.01.27 1320 UTC
Wind: Variable at 2 MPH (2 KT):0
Visibility: greater than 7 mile(s):0
Temperature: 50 F (10 C)
Dew Point: 15 F (-9 C)
Relative Humidity: 25%
Pressure (altimeter): 30.00 in. Hg (1016 hPa)
ob: LIBP 271320Z AUTO VRB02KT 9999 NCD 10/M09 Q1016
cycle: 13

Station Type Date Time Source
LIBP TAF 2021/01/27 12:24 UTC NOAA

TAF LIBP 271100Z 2712/2812 VRB06KT 9999 FEW090

Example: see airport list